sensor_id;sensor_type;location;lat;lon;timestamp;P1;durP1;ratioP1;P2;durP2;ratioP2
71513;SDS011;59335;46.652;21.272;2023-02-10T00:02:07;90.90;;;52.53;;
71513;SDS011;59335;46.652;21.272;2023-02-10T00:05:10;88.95;;;52.47;;
71513;SDS011;59335;46.652;21.272;2023-02-10T00:08:12;89.47;;;51.63;;
71513;SDS011;59335;46.652;21.272;2023-02-10T00:11:16;89.65;;;54.17;;
71513;SDS011;59335;46.652;21.272;2023-02-10T00:14:19;88.13;;;53.33;;
71513;SDS011;59335;46.652;21.272;2023-02-10T00:17:22;89.40;;;53.35;;
71513;SDS011;59335;46.652;21.272;2023-02-10T00:20:24;89.55;;;51.72;;
71513;SDS011;59335;46.652;21.272;2023-02-10T00:23:27;88.97;;;51.27;;
71513;SDS011;59335;46.652;21.272;2023-02-10T00:26:30;89.97;;;52.75;;
71513;SDS011;59335;46.652;21.272;2023-02-10T00:29:32;89.38;;;53.08;;
71513;SDS011;59335;46.652;21.272;2023-02-10T00:32:36;84.78;;;50.55;;
71513;SDS011;59335;46.652;21.272;2023-02-10T00:35:39;88.82;;;52.28;;
71513;SDS011;59335;46.652;21.272;2023-02-10T00:38:42;83.93;;;49.67;;
71513;SDS011;59335;46.652;21.272;2023-02-10T00:41:45;84.50;;;51.95;;
71513;SDS011;59335;46.652;21.272;2023-02-10T00:44:48;88.85;;;51.50;;
71513;SDS011;59335;46.652;21.272;2023-02-10T00:47:51;85.38;;;50.30;;
71513;SDS011;59335;46.652;21.272;2023-02-10T00:50:54;82.95;;;50.58;;
71513;SDS011;59335;46.652;21.272;2023-02-10T00:53:57;79.70;;;49.23;;
71513;SDS011;59335;46.652;21.272;2023-02-10T00:56:59;83.72;;;49.05;;
71513;SDS011;59335;46.652;21.272;2023-02-10T01:00:03;84.90;;;50.45;;
71513;SDS011;59335;46.652;21.272;2023-02-10T01:03:08;81.20;;;48.30;;
71513;SDS011;59335;46.652;21.272;2023-02-10T01:06:12;82.38;;;49.47;;
71513;SDS011;59335;46.652;21.272;2023-02-10T01:09:16;81.47;;;46.77;;
71513;SDS011;59335;46.652;21.272;2023-02-10T01:12:20;79.28;;;47.35;;
71513;SDS011;59335;46.652;21.272;2023-02-10T01:15:23;81.20;;;46.70;;
71513;SDS011;59335;46.652;21.272;2023-02-10T01:18:26;75.80;;;46.05;;
71513;SDS011;59335;46.652;21.272;2023-02-10T01:21:31;77.40;;;47.20;;
71513;SDS011;59335;46.652;21.272;2023-02-10T01:24:34;73.93;;;44.17;;
71513;SDS011;59335;46.652;21.272;2023-02-10T01:27:37;72.75;;;44.67;;
71513;SDS011;59335;46.652;21.272;2023-02-10T01:30:42;71.72;;;43.70;;
71513;SDS011;59335;46.652;21.272;2023-02-10T01:33:45;74.65;;;44.30;;
71513;SDS011;59335;46.652;21.272;2023-02-10T01:36:48;72.60;;;43.55;;
71513;SDS011;59335;46.652;21.272;2023-02-10T01:39:52;71.30;;;43.33;;
71513;SDS011;59335;46.652;21.272;2023-02-10T01:42:54;73.15;;;44.65;;
71513;SDS011;59335;46.652;21.272;2023-02-10T01:45:57;70.82;;;42.80;;
71513;SDS011;59335;46.652;21.272;2023-02-10T01:49:04;66.05;;;39.90;;
71513;SDS011;59335;46.652;21.272;2023-02-10T01:52:22;69.65;;;43.00;;
71513;SDS011;59335;46.652;21.272;2023-02-10T01:55:30;67.63;;;41.90;;
71513;SDS011;59335;46.652;21.272;2023-02-10T01:58:38;67.47;;;40.88;;
71513;SDS011;59335;46.652;21.272;2023-02-10T02:01:43;69.45;;;42.03;;
71513;SDS011;59335;46.652;21.272;2023-02-10T02:04:48;67.82;;;40.72;;
71513;SDS011;59335;46.652;21.272;2023-02-10T02:07:54;63.40;;;40.75;;
71513;SDS011;59335;46.652;21.272;2023-02-10T02:27:48;65.43;;;38.77;;
71513;SDS011;59335;46.652;21.272;2023-02-10T02:37:42;61.42;;;38.80;;
71513;SDS011;59335;46.652;21.272;2023-02-10T02:40:46;61.97;;;38.83;;
71513;SDS011;59335;46.652;21.272;2023-02-10T02:43:49;60.57;;;38.53;;
71513;SDS011;59335;46.652;21.272;2023-02-10T02:47:00;62.72;;;38.90;;
71513;SDS011;59335;46.652;21.272;2023-02-10T03:00:14;58.53;;;38.33;;
71513;SDS011;59335;46.652;21.272;2023-02-10T03:03:22;59.08;;;36.40;;
71513;SDS011;59335;46.652;21.272;2023-02-10T03:06:25;60.42;;;37.90;;
71513;SDS011;59335;46.652;21.272;2023-02-10T03:09:29;55.95;;;36.25;;
71513;SDS011;59335;46.652;21.272;2023-02-10T03:12:32;57.47;;;36.28;;
71513;SDS011;59335;46.652;21.272;2023-02-10T03:15:35;54.77;;;35.53;;
71513;SDS011;59335;46.652;21.272;2023-02-10T03:18:38;56.10;;;36.75;;
71513;SDS011;59335;46.652;21.272;2023-02-10T03:21:41;56.90;;;37.05;;
71513;SDS011;59335;46.652;21.272;2023-02-10T03:24:43;56.17;;;35.50;;
71513;SDS011;59335;46.652;21.272;2023-02-10T03:27:46;58.15;;;36.95;;
71513;SDS011;59335;46.652;21.272;2023-02-10T03:30:49;54.43;;;34.47;;
71513;SDS011;59335;46.652;21.272;2023-02-10T03:33:52;54.25;;;35.38;;
71513;SDS011;59335;46.652;21.272;2023-02-10T03:36:55;56.50;;;34.70;;
71513;SDS011;59335;46.652;21.272;2023-02-10T03:39:58;55.13;;;35.13;;
71513;SDS011;59335;46.652;21.272;2023-02-10T03:43:00;55.15;;;35.22;;
71513;SDS011;59335;46.652;21.272;2023-02-10T03:46:03;53.80;;;34.23;;
71513;SDS011;59335;46.652;21.272;2023-02-10T03:49:06;57.60;;;34.72;;
71513;SDS011;59335;46.652;21.272;2023-02-10T03:52:09;55.60;;;35.08;;
71513;SDS011;59335;46.652;21.272;2023-02-10T03:55:12;54.83;;;34.20;;
71513;SDS011;59335;46.652;21.272;2023-02-10T03:58:17;54.25;;;34.28;;
71513;SDS011;59335;46.652;21.272;2023-02-10T04:01:20;51.37;;;33.03;;
71513;SDS011;59335;46.652;21.272;2023-02-10T04:04:23;54.50;;;34.58;;
71513;SDS011;59335;46.652;21.272;2023-02-10T04:07:25;53.15;;;34.47;;
71513;SDS011;59335;46.652;21.272;2023-02-10T04:10:28;57.63;;;34.78;;
71513;SDS011;59335;46.652;21.272;2023-02-10T04:13:31;53.88;;;35.17;;
71513;SDS011;59335;46.652;21.272;2023-02-10T04:16:34;54.40;;;35.60;;
71513;SDS011;59335;46.652;21.272;2023-02-10T04:19:37;53.60;;;34.55;;
71513;SDS011;59335;46.652;21.272;2023-02-10T04:22:41;53.40;;;33.83;;
71513;SDS011;59335;46.652;21.272;2023-02-10T04:25:45;53.65;;;34.30;;
71513;SDS011;59335;46.652;21.272;2023-02-10T04:28:48;50.50;;;33.15;;
71513;SDS011;59335;46.652;21.272;2023-02-10T04:31:51;55.67;;;35.50;;
71513;SDS011;59335;46.652;21.272;2023-02-10T04:34:54;52.17;;;34.35;;
71513;SDS011;59335;46.652;21.272;2023-02-10T04:37:56;54.60;;;33.20;;
71513;SDS011;59335;46.652;21.272;2023-02-10T04:41:00;51.42;;;32.72;;
71513;SDS011;59335;46.652;21.272;2023-02-10T04:44:05;51.88;;;32.55;;
71513;SDS011;59335;46.652;21.272;2023-02-10T04:47:08;48.00;;;31.70;;
71513;SDS011;59335;46.652;21.272;2023-02-10T04:50:10;50.53;;;32.67;;
71513;SDS011;59335;46.652;21.272;2023-02-10T04:53:13;50.75;;;32.97;;
71513;SDS011;59335;46.652;21.272;2023-02-10T04:56:16;47.35;;;31.85;;
71513;SDS011;59335;46.652;21.272;2023-02-10T04:59:19;52.40;;;33.25;;
71513;SDS011;59335;46.652;21.272;2023-02-10T05:02:22;45.40;;;30.63;;
71513;SDS011;59335;46.652;21.272;2023-02-10T05:05:24;52.38;;;33.17;;
71513;SDS011;59335;46.652;21.272;2023-02-10T05:08:28;50.83;;;32.35;;
71513;SDS011;59335;46.652;21.272;2023-02-10T05:11:30;52.55;;;32.85;;
71513;SDS011;59335;46.652;21.272;2023-02-10T05:14:33;48.92;;;32.47;;
71513;SDS011;59335;46.652;21.272;2023-02-10T05:17:35;48.00;;;31.33;;
71513;SDS011;59335;46.652;21.272;2023-02-10T05:20:38;51.53;;;33.05;;
71513;SDS011;59335;46.652;21.272;2023-02-10T05:23:41;48.88;;;32.90;;
71513;SDS011;59335;46.652;21.272;2023-02-10T05:26:44;49.80;;;31.23;;
71513;SDS011;59335;46.652;21.272;2023-02-10T05:29:46;50.70;;;31.52;;
71513;SDS011;59335;46.652;21.272;2023-02-10T05:32:49;45.70;;;31.27;;
71513;SDS011;59335;46.652;21.272;2023-02-10T05:35:52;47.65;;;31.42;;
71513;SDS011;59335;46.652;21.272;2023-02-10T05:38:55;47.83;;;31.73;;
71513;SDS011;59335;46.652;21.272;2023-02-10T05:42:17;48.50;;;30.80;;
71513;SDS011;59335;46.652;21.272;2023-02-10T05:45:20;47.50;;;31.20;;
71513;SDS011;59335;46.652;21.272;2023-02-10T05:48:23;47.17;;;30.87;;
71513;SDS011;59335;46.652;21.272;2023-02-10T05:51:26;44.47;;;30.00;;
71513;SDS011;59335;46.652;21.272;2023-02-10T05:54:29;49.80;;;31.05;;
71513;SDS011;59335;46.652;21.272;2023-02-10T05:57:32;45.88;;;31.00;;
71513;SDS011;59335;46.652;21.272;2023-02-10T06:00:35;46.88;;;31.50;;
71513;SDS011;59335;46.652;21.272;2023-02-10T06:03:38;44.47;;;29.67;;
71513;SDS011;59335;46.652;21.272;2023-02-10T06:06:43;44.50;;;29.73;;
71513;SDS011;59335;46.652;21.272;2023-02-10T06:09:47;47.80;;;30.27;;
71513;SDS011;59335;46.652;21.272;2023-02-10T06:12:50;44.50;;;29.50;;
71513;SDS011;59335;46.652;21.272;2023-02-10T06:15:53;45.67;;;29.52;;
71513;SDS011;59335;46.652;21.272;2023-02-10T06:18:55;44.83;;;28.57;;
71513;SDS011;59335;46.652;21.272;2023-02-10T06:22:00;46.50;;;29.77;;
71513;SDS011;59335;46.652;21.272;2023-02-10T06:25:03;47.33;;;29.02;;
71513;SDS011;59335;46.652;21.272;2023-02-10T06:28:07;44.42;;;28.50;;
71513;SDS011;59335;46.652;21.272;2023-02-10T06:31:10;45.95;;;28.98;;
71513;SDS011;59335;46.652;21.272;2023-02-10T06:34:13;45.63;;;28.40;;
71513;SDS011;59335;46.652;21.272;2023-02-10T06:37:21;41.65;;;27.85;;
71513;SDS011;59335;46.652;21.272;2023-02-10T06:40:24;41.85;;;29.25;;
71513;SDS011;59335;46.652;21.272;2023-02-10T06:43:27;44.10;;;27.40;;
71513;SDS011;59335;46.652;21.272;2023-02-10T06:46:30;43.03;;;27.27;;
71513;SDS011;59335;46.652;21.272;2023-02-10T06:49:33;42.03;;;27.07;;
71513;SDS011;59335;46.652;21.272;2023-02-10T06:52:35;42.75;;;28.15;;
71513;SDS011;59335;46.652;21.272;2023-02-10T06:55:46;41.05;;;26.90;;
71513;SDS011;59335;46.652;21.272;2023-02-10T06:58:52;44.75;;;27.25;;
71513;SDS011;59335;46.652;21.272;2023-02-10T07:01:54;42.58;;;25.83;;
71513;SDS011;59335;46.652;21.272;2023-02-10T07:05:03;42.10;;;26.43;;
71513;SDS011;59335;46.652;21.272;2023-02-10T07:08:15;40.13;;;25.92;;
71513;SDS011;59335;46.652;21.272;2023-02-10T07:11:33;40.03;;;26.52;;
71513;SDS011;59335;46.652;21.272;2023-02-10T07:14:41;39.42;;;25.42;;
71513;SDS011;59335;46.652;21.272;2023-02-10T07:17:45;39.70;;;25.33;;
71513;SDS011;59335;46.652;21.272;2023-02-10T07:20:48;39.50;;;25.97;;
71513;SDS011;59335;46.652;21.272;2023-02-10T07:23:51;38.65;;;25.30;;
71513;SDS011;59335;46.652;21.272;2023-02-10T07:26:54;36.83;;;24.85;;
71513;SDS011;59335;46.652;21.272;2023-02-10T07:29:59;37.40;;;23.73;;
71513;SDS011;59335;46.652;21.272;2023-02-10T07:33:02;38.25;;;24.75;;
71513;SDS011;59335;46.652;21.272;2023-02-10T07:36:06;36.73;;;24.50;;
71513;SDS011;59335;46.652;21.272;2023-02-10T07:39:11;37.35;;;24.35;;
71513;SDS011;59335;46.652;21.272;2023-02-10T07:42:14;37.30;;;25.00;;
71513;SDS011;59335;46.652;21.272;2023-02-10T07:45:40;38.20;;;25.15;;
71513;SDS011;59335;46.652;21.272;2023-02-10T07:48:43;33.75;;;23.73;;
71513;SDS011;59335;46.652;21.272;2023-02-10T07:51:46;36.03;;;23.67;;
71513;SDS011;59335;46.652;21.272;2023-02-10T07:54:50;36.35;;;24.50;;
71513;SDS011;59335;46.652;21.272;2023-02-10T07:58:04;35.80;;;24.00;;
71513;SDS011;59335;46.652;21.272;2023-02-10T08:01:09;38.88;;;24.58;;
71513;SDS011;59335;46.652;21.272;2023-02-10T08:04:13;41.10;;;25.92;;
71513;SDS011;59335;46.652;21.272;2023-02-10T08:07:16;34.77;;;23.80;;
71513;SDS011;59335;46.652;21.272;2023-02-10T08:10:19;36.85;;;24.10;;
71513;SDS011;59335;46.652;21.272;2023-02-10T08:13:25;38.03;;;24.50;;
71513;SDS011;59335;46.652;21.272;2023-02-10T08:16:33;37.33;;;22.55;;
71513;SDS011;59335;46.652;21.272;2023-02-10T08:19:36;37.97;;;24.50;;
71513;SDS011;59335;46.652;21.272;2023-02-10T08:22:42;33.77;;;22.97;;
71513;SDS011;59335;46.652;21.272;2023-02-10T08:25:46;34.97;;;23.60;;
71513;SDS011;59335;46.652;21.272;2023-02-10T08:28:52;38.00;;;23.60;;
71513;SDS011;59335;46.652;21.272;2023-02-10T08:31:59;35.05;;;23.45;;
71513;SDS011;59335;46.652;21.272;2023-02-10T08:35:02;32.28;;;23.17;;
71513;SDS011;59335;46.652;21.272;2023-02-10T08:38:07;36.13;;;23.53;;
71513;SDS011;59335;46.652;21.272;2023-02-10T08:41:15;34.40;;;23.25;;
71513;SDS011;59335;46.652;21.272;2023-02-10T08:44:19;38.95;;;23.10;;
71513;SDS011;59335;46.652;21.272;2023-02-10T08:47:22;35.08;;;22.70;;
71513;SDS011;59335;46.652;21.272;2023-02-10T08:50:26;35.28;;;22.98;;
71513;SDS011;59335;46.652;21.272;2023-02-10T08:53:34;34.37;;;22.70;;
71513;SDS011;59335;46.652;21.272;2023-02-10T08:56:44;40.25;;;23.05;;
71513;SDS011;59335;46.652;21.272;2023-02-10T08:59:47;35.00;;;22.55;;
71513;SDS011;59335;46.652;21.272;2023-02-10T09:02:51;36.80;;;21.95;;
71513;SDS011;59335;46.652;21.272;2023-02-10T09:05:58;35.95;;;22.52;;
71513;SDS011;59335;46.652;21.272;2023-02-10T09:09:04;34.67;;;21.97;;
71513;SDS011;59335;46.652;21.272;2023-02-10T09:12:09;32.63;;;21.02;;
71513;SDS011;59335;46.652;21.272;2023-02-10T09:15:13;34.92;;;22.95;;
71513;SDS011;59335;46.652;21.272;2023-02-10T09:18:16;32.10;;;21.73;;
71513;SDS011;59335;46.652;21.272;2023-02-10T09:21:20;33.80;;;21.85;;
71513;SDS011;59335;46.652;21.272;2023-02-10T09:24:24;31.70;;;20.63;;
71513;SDS011;59335;46.652;21.272;2023-02-10T09:27:27;31.85;;;20.65;;
71513;SDS011;59335;46.652;21.272;2023-02-10T09:30:32;30.95;;;20.98;;
71513;SDS011;59335;46.652;21.272;2023-02-10T09:33:39;30.08;;;20.63;;
71513;SDS011;59335;46.652;21.272;2023-02-10T09:36:42;34.38;;;21.65;;
71513;SDS011;59335;46.652;21.272;2023-02-10T09:39:46;33.00;;;20.43;;
71513;SDS011;59335;46.652;21.272;2023-02-10T09:46:32;30.75;;;21.05;;
71513;SDS011;59335;46.652;21.272;2023-02-10T09:53:25;32.35;;;20.70;;
71513;SDS011;59335;46.652;21.272;2023-02-10T09:56:32;34.93;;;20.53;;
71513;SDS011;59335;46.652;21.272;2023-02-10T09:59:41;32.33;;;19.35;;
71513;SDS011;59335;46.652;21.272;2023-02-10T10:02:50;30.33;;;19.25;;
71513;SDS011;59335;46.652;21.272;2023-02-10T10:06:17;33.20;;;19.35;;
71513;SDS011;59335;46.652;21.272;2023-02-10T10:09:40;31.75;;;19.27;;
71513;SDS011;59335;46.652;21.272;2023-02-10T10:12:45;31.53;;;19.90;;
71513;SDS011;59335;46.652;21.272;2023-02-10T10:29:51;28.53;;;18.23;;
71513;SDS011;59335;46.652;21.272;2023-02-10T10:32:58;28.42;;;18.05;;
71513;SDS011;59335;46.652;21.272;2023-02-10T10:36:11;27.60;;;17.85;;
71513;SDS011;59335;46.652;21.272;2023-02-10T10:39:37;27.77;;;18.10;;
71513;SDS011;59335;46.652;21.272;2023-02-10T10:42:44;30.02;;;17.90;;
71513;SDS011;59335;46.652;21.272;2023-02-10T10:45:49;28.03;;;17.13;;
71513;SDS011;59335;46.652;21.272;2023-02-10T10:48:56;27.35;;;17.92;;
71513;SDS011;59335;46.652;21.272;2023-02-10T10:52:00;29.83;;;17.17;;
71513;SDS011;59335;46.652;21.272;2023-02-10T10:55:15;25.73;;;16.45;;
71513;SDS011;59335;46.652;21.272;2023-02-10T10:58:41;28.95;;;19.40;;
71513;SDS011;59335;46.652;21.272;2023-02-10T11:01:47;30.77;;;17.27;;
71513;SDS011;59335;46.652;21.272;2023-02-10T11:05:00;28.48;;;17.90;;
71513;SDS011;59335;46.652;21.272;2023-02-10T11:08:21;27.58;;;17.20;;
71513;SDS011;59335;46.652;21.272;2023-02-10T11:11:46;29.42;;;16.33;;
71513;SDS011;59335;46.652;21.272;2023-02-10T11:14:50;29.25;;;16.98;;
71513;SDS011;59335;46.652;21.272;2023-02-10T11:17:56;26.37;;;16.07;;
71513;SDS011;59335;46.652;21.272;2023-02-10T11:24:21;26.05;;;16.33;;
71513;SDS011;59335;46.652;21.272;2023-02-10T11:27:28;26.75;;;16.48;;
71513;SDS011;59335;46.652;21.272;2023-02-10T11:33:38;25.07;;;15.97;;
71513;SDS011;59335;46.652;21.272;2023-02-10T11:36:49;28.17;;;15.70;;
71513;SDS011;59335;46.652;21.272;2023-02-10T11:39:55;26.33;;;16.10;;
71513;SDS011;59335;46.652;21.272;2023-02-10T11:43:00;25.63;;;15.70;;
71513;SDS011;59335;46.652;21.272;2023-02-10T11:46:06;24.55;;;15.13;;
71513;SDS011;59335;46.652;21.272;2023-02-10T11:49:18;22.97;;;14.73;;
71513;SDS011;59335;46.652;21.272;2023-02-10T11:52:22;28.45;;;15.48;;
71513;SDS011;59335;46.652;21.272;2023-02-10T11:55:51;27.75;;;15.85;;
71513;SDS011;59335;46.652;21.272;2023-02-10T12:03:01;21.15;;;13.88;;
71513;SDS011;59335;46.652;21.272;2023-02-10T12:06:23;28.97;;;14.57;;
71513;SDS011;59335;46.652;21.272;2023-02-10T12:09:46;24.95;;;15.43;;
71513;SDS011;59335;46.652;21.272;2023-02-10T12:23:37;23.27;;;14.60;;
71513;SDS011;59335;46.652;21.272;2023-02-10T12:26:58;24.23;;;14.60;;
71513;SDS011;59335;46.652;21.272;2023-02-10T12:30:28;24.88;;;14.65;;
71513;SDS011;59335;46.652;21.272;2023-02-10T12:53:28;23.92;;;14.27;;
71513;SDS011;59335;46.652;21.272;2023-02-10T12:56:39;23.00;;;12.67;;
71513;SDS011;59335;46.652;21.272;2023-02-10T12:59:48;21.95;;;13.88;;
71513;SDS011;59335;46.652;21.272;2023-02-10T13:03:05;23.67;;;13.48;;
71513;SDS011;59335;46.652;21.272;2023-02-10T13:06:25;24.85;;;13.50;;
71513;SDS011;59335;46.652;21.272;2023-02-10T13:09:42;22.77;;;14.10;;
71513;SDS011;59335;46.652;21.272;2023-02-10T13:12:50;22.07;;;12.50;;
71513;SDS011;59335;46.652;21.272;2023-02-10T13:19:30;21.25;;;14.02;;
71513;SDS011;59335;46.652;21.272;2023-02-10T13:22:42;20.60;;;12.82;;
71513;SDS011;59335;46.652;21.272;2023-02-10T13:35:49;21.40;;;13.05;;
71513;SDS011;59335;46.652;21.272;2023-02-10T13:38:58;21.10;;;12.45;;
71513;SDS011;59335;46.652;21.272;2023-02-10T13:45:35;25.67;;;12.30;;
71513;SDS011;59335;46.652;21.272;2023-02-10T13:48:39;24.10;;;12.50;;
71513;SDS011;59335;46.652;21.272;2023-02-10T13:51:42;21.30;;;13.02;;
71513;SDS011;59335;46.652;21.272;2023-02-10T14:04:40;22.42;;;12.40;;
71513;SDS011;59335;46.652;21.272;2023-02-10T14:07:45;17.98;;;11.63;;
71513;SDS011;59335;46.652;21.272;2023-02-10T14:10:58;24.95;;;11.77;;
71513;SDS011;59335;46.652;21.272;2023-02-10T14:14:31;20.85;;;12.30;;
71513;SDS011;59335;46.652;21.272;2023-02-10T14:17:39;19.80;;;11.73;;
71513;SDS011;59335;46.652;21.272;2023-02-10T14:20:47;17.88;;;11.95;;
71513;SDS011;59335;46.652;21.272;2023-02-10T14:24:05;19.75;;;12.32;;
71513;SDS011;59335;46.652;21.272;2023-02-10T14:27:28;19.35;;;11.77;;
71513;SDS011;59335;46.652;21.272;2023-02-10T14:30:41;18.58;;;11.30;;
71513;SDS011;59335;46.652;21.272;2023-02-10T14:33:55;21.33;;;11.07;;
71513;SDS011;59335;46.652;21.272;2023-02-10T14:37:20;18.30;;;11.15;;
71513;SDS011;59335;46.652;21.272;2023-02-10T14:40:25;18.27;;;11.98;;
71513;SDS011;59335;46.652;21.272;2023-02-10T14:43:30;19.65;;;11.20;;
71513;SDS011;59335;46.652;21.272;2023-02-10T14:46:37;17.50;;;11.68;;
71513;SDS011;59335;46.652;21.272;2023-02-10T14:49:47;20.27;;;11.10;;
71513;SDS011;59335;46.652;21.272;2023-02-10T14:52:52;20.20;;;11.45;;
71513;SDS011;59335;46.652;21.272;2023-02-10T14:55:58;19.38;;;11.95;;
71513;SDS011;59335;46.652;21.272;2023-02-10T14:59:02;17.77;;;11.25;;
71513;SDS011;59335;46.652;21.272;2023-02-10T15:02:16;19.95;;;11.15;;
71513;SDS011;59335;46.652;21.272;2023-02-10T15:05:22;20.60;;;11.17;;
71513;SDS011;59335;46.652;21.272;2023-02-10T15:08:30;21.70;;;11.35;;
71513;SDS011;59335;46.652;21.272;2023-02-10T15:11:46;18.88;;;11.20;;
71513;SDS011;59335;46.652;21.272;2023-02-10T15:15:27;17.58;;;11.02;;
71513;SDS011;59335;46.652;21.272;2023-02-10T15:18:36;19.45;;;11.23;;
71513;SDS011;59335;46.652;21.272;2023-02-10T15:21:45;20.67;;;10.77;;
71513;SDS011;59335;46.652;21.272;2023-02-10T15:24:48;21.17;;;10.13;;
71513;SDS011;59335;46.652;21.272;2023-02-10T15:27:51;21.42;;;11.15;;
71513;SDS011;59335;46.652;21.272;2023-02-10T15:30:58;19.20;;;10.18;;
71513;SDS011;59335;46.652;21.272;2023-02-10T15:37:21;17.70;;;10.57;;
71513;SDS011;59335;46.652;21.272;2023-02-10T15:40:29;24.38;;;10.95;;
71513;SDS011;59335;46.652;21.272;2023-02-10T15:43:33;20.90;;;11.15;;
71513;SDS011;59335;46.652;21.272;2023-02-10T15:46:39;22.00;;;11.60;;
71513;SDS011;59335;46.652;21.272;2023-02-10T15:49:43;18.70;;;11.00;;
71513;SDS011;59335;46.652;21.272;2023-02-10T15:52:47;21.50;;;11.20;;
71513;SDS011;59335;46.652;21.272;2023-02-10T15:55:52;20.35;;;10.60;;
71513;SDS011;59335;46.652;21.272;2023-02-10T15:58:55;22.98;;;11.68;;
71513;SDS011;59335;46.652;21.272;2023-02-10T16:02:01;18.73;;;10.50;;
71513;SDS011;59335;46.652;21.272;2023-02-10T16:05:06;21.65;;;11.25;;
71513;SDS011;59335;46.652;21.272;2023-02-10T16:08:19;18.27;;;11.10;;
71513;SDS011;59335;46.652;21.272;2023-02-10T16:11:25;21.25;;;10.90;;
71513;SDS011;59335;46.652;21.272;2023-02-10T16:14:31;19.92;;;10.98;;
71513;SDS011;59335;46.652;21.272;2023-02-10T16:17:39;20.63;;;10.45;;
71513;SDS011;59335;46.652;21.272;2023-02-10T16:20:47;20.40;;;10.48;;
71513;SDS011;59335;46.652;21.272;2023-02-10T16:23:52;19.73;;;10.57;;
71513;SDS011;59335;46.652;21.272;2023-02-10T16:26:55;20.58;;;10.43;;
71513;SDS011;59335;46.652;21.272;2023-02-10T16:30:03;20.75;;;11.15;;
71513;SDS011;59335;46.652;21.272;2023-02-10T16:33:08;18.65;;;10.77;;
71513;SDS011;59335;46.652;21.272;2023-02-10T16:36:13;20.85;;;10.65;;
71513;SDS011;59335;46.652;21.272;2023-02-10T16:39:20;19.73;;;10.97;;
71513;SDS011;59335;46.652;21.272;2023-02-10T16:42:28;20.13;;;11.00;;
71513;SDS011;59335;46.652;21.272;2023-02-10T16:45:35;19.20;;;11.77;;
71513;SDS011;59335;46.652;21.272;2023-02-10T16:48:40;21.52;;;11.32;;
71513;SDS011;59335;46.652;21.272;2023-02-10T16:51:44;18.92;;;11.07;;
71513;SDS011;59335;46.652;21.272;2023-02-10T16:54:48;21.17;;;10.93;;
71513;SDS011;59335;46.652;21.272;2023-02-10T16:57:53;18.17;;;11.48;;
71513;SDS011;59335;46.652;21.272;2023-02-10T17:00:57;19.23;;;11.48;;
71513;SDS011;59335;46.652;21.272;2023-02-10T17:04:02;23.20;;;12.18;;
71513;SDS011;59335;46.652;21.272;2023-02-10T17:07:05;19.90;;;11.82;;
71513;SDS011;59335;46.652;21.272;2023-02-10T17:10:28;24.00;;;12.07;;
71513;SDS011;59335;46.652;21.272;2023-02-10T17:13:34;18.20;;;11.85;;
71513;SDS011;59335;46.652;21.272;2023-02-10T17:16:42;22.35;;;12.23;;
71513;SDS011;59335;46.652;21.272;2023-02-10T17:19:55;22.20;;;12.45;;
71513;SDS011;59335;46.652;21.272;2023-02-10T17:23:01;19.05;;;12.10;;
71513;SDS011;59335;46.652;21.272;2023-02-10T17:26:05;23.83;;;12.97;;
71513;SDS011;59335;46.652;21.272;2023-02-10T17:29:14;22.52;;;12.20;;
71513;SDS011;59335;46.652;21.272;2023-02-10T17:32:20;21.17;;;12.63;;
71513;SDS011;59335;46.652;21.272;2023-02-10T17:35:24;20.73;;;13.30;;
71513;SDS011;59335;46.652;21.272;2023-02-10T17:38:28;20.63;;;12.50;;
71513;SDS011;59335;46.652;21.272;2023-02-10T17:41:54;22.13;;;12.93;;
71513;SDS011;59335;46.652;21.272;2023-02-10T17:44:59;19.58;;;12.60;;
71513;SDS011;59335;46.652;21.272;2023-02-10T17:48:04;23.75;;;13.32;;
71513;SDS011;59335;46.652;21.272;2023-02-10T17:51:20;18.92;;;12.40;;
71513;SDS011;59335;46.652;21.272;2023-02-10T17:54:26;23.40;;;13.30;;
71513;SDS011;59335;46.652;21.272;2023-02-10T17:57:31;23.67;;;13.40;;
71513;SDS011;59335;46.652;21.272;2023-02-10T18:00:36;20.73;;;12.90;;
71513;SDS011;59335;46.652;21.272;2023-02-10T18:03:40;21.65;;;13.18;;
71513;SDS011;59335;46.652;21.272;2023-02-10T18:06:47;22.25;;;13.57;;
71513;SDS011;59335;46.652;21.272;2023-02-10T18:09:51;23.27;;;12.98;;
71513;SDS011;59335;46.652;21.272;2023-02-10T18:12:56;24.53;;;13.30;;
71513;SDS011;59335;46.652;21.272;2023-02-10T18:16:01;22.30;;;13.30;;
71513;SDS011;59335;46.652;21.272;2023-02-10T18:19:08;24.65;;;14.65;;
71513;SDS011;59335;46.652;21.272;2023-02-10T18:22:13;23.05;;;13.90;;
71513;SDS011;59335;46.652;21.272;2023-02-10T18:25:18;24.45;;;13.77;;
71513;SDS011;59335;46.652;21.272;2023-02-10T18:28:30;21.83;;;13.57;;
71513;SDS011;59335;46.652;21.272;2023-02-10T18:31:35;22.80;;;14.50;;
71513;SDS011;59335;46.652;21.272;2023-02-10T18:34:40;25.70;;;14.40;;
71513;SDS011;59335;46.652;21.272;2023-02-10T18:37:44;24.40;;;13.63;;
71513;SDS011;59335;46.652;21.272;2023-02-10T18:40:51;23.33;;;14.73;;
71513;SDS011;59335;46.652;21.272;2023-02-10T18:43:58;24.03;;;14.47;;
71513;SDS011;59335;46.652;21.272;2023-02-10T18:47:02;24.67;;;14.90;;
71513;SDS011;59335;46.652;21.272;2023-02-10T18:50:06;24.00;;;14.70;;
71513;SDS011;59335;46.652;21.272;2023-02-10T18:53:11;23.35;;;14.75;;
71513;SDS011;59335;46.652;21.272;2023-02-10T18:56:17;23.48;;;14.98;;
71513;SDS011;59335;46.652;21.272;2023-02-10T18:59:22;23.37;;;14.63;;
71513;SDS011;59335;46.652;21.272;2023-02-10T19:02:28;23.77;;;15.57;;
71513;SDS011;59335;46.652;21.272;2023-02-10T19:05:33;24.95;;;15.23;;
71513;SDS011;59335;46.652;21.272;2023-02-10T19:08:38;25.10;;;15.52;;
71513;SDS011;59335;46.652;21.272;2023-02-10T19:11:43;25.10;;;15.27;;
71513;SDS011;59335;46.652;21.272;2023-02-10T19:14:50;23.77;;;14.90;;
71513;SDS011;59335;46.652;21.272;2023-02-10T19:17:54;24.95;;;15.82;;
71513;SDS011;59335;46.652;21.272;2023-02-10T19:21:00;24.63;;;16.08;;
71513;SDS011;59335;46.652;21.272;2023-02-10T19:24:06;24.45;;;15.88;;
71513;SDS011;59335;46.652;21.272;2023-02-10T19:27:12;24.70;;;16.00;;
71513;SDS011;59335;46.652;21.272;2023-02-10T19:30:17;26.03;;;16.43;;
71513;SDS011;59335;46.652;21.272;2023-02-10T19:33:24;25.55;;;16.38;;
71513;SDS011;59335;46.652;21.272;2023-02-10T19:36:28;26.15;;;17.13;;
71513;SDS011;59335;46.652;21.272;2023-02-10T19:39:33;25.92;;;16.38;;
71513;SDS011;59335;46.652;21.272;2023-02-10T19:42:39;29.13;;;18.83;;
71513;SDS011;59335;46.652;21.272;2023-02-10T19:45:48;27.90;;;16.50;;
71513;SDS011;59335;46.652;21.272;2023-02-10T19:48:53;28.88;;;16.90;;
71513;SDS011;59335;46.652;21.272;2023-02-10T19:52:00;26.88;;;16.80;;
71513;SDS011;59335;46.652;21.272;2023-02-10T19:55:04;26.75;;;17.00;;
71513;SDS011;59335;46.652;21.272;2023-02-10T19:58:10;26.70;;;17.73;;
71513;SDS011;59335;46.652;21.272;2023-02-10T20:01:16;27.77;;;17.97;;